Great Hebei — VRFU6 — position and weather

sailwx.info

Track history (hours):
 
Tides and Currents Weather Stations Pressure Air Temp Water Temp Dewpoint Dewpoint Depression Visibility Wind Speed Wind Dir Waves Ship Positions

Great Hebei

Last reported at 2015-May-25 04:21 UTC. Time now 2015-May-25 09:26 UTC.
Position N 22°05' E 119°50'.

Length 295 m; draft 9.6 m.

Type: Cargo ship. MMSI: 477617100.

Date/timePositionNaut miles runAvg speedWind from/ knotsBaromVisibWave heightAir tempDewpointWater temp
2015-May-25 04:21N 22°05' E 119°50'1010.2
2015-May-25 03:20N 22°16' E 119°50'810.3
2015-May-25 02:33N 22°24' E 119°50'1110.6
2015-May-25 01:33N 22°34' E 119°50'1010.5
2015-May-25 00:33N 22°45' E 119°51'1010.2
2015-May-24 23:33N 22°55' E 119°50'  
2015-May-22 15:22N 31°12' E 123°18'2010.6
2015-May-22 13:31N 31°32' E 123°15'1111.6
2015-May-22 12:33N 31°43' E 123°15'1211.7
2015-May-22 11:33N 31°55' E 123°14'1611.1
2015-May-22 10:07N 32°10' E 123°14'610.8
2015-May-22 09:32N 32°17' E 123°13'1010.3
2015-May-22 08:33N 32°26' E 123°09'9 7.4
2015-May-22 07:18N 32°35' E 123°07'28 8.7
2015-May-22 04:04N 33°03' E 123°00'610.1
2015-May-22 03:27N 33°09' E 123°00'1310.0
2015-May-22 02:08N 33°22' E 122°55'611.1
2015-May-22 01:33N 33°28' E 122°54'7 6.6
2015-May-22 00:25N 33°34' E 122°48'61 8.7
2015-May-21 17:23N 34°31' E 122°23'127 9.9
2015-May-21 04:33N 35°12' E 119°57'1110.7
2015-May-21 03:33N 35°16' E 119°44'1010.5
2015-May-21 02:33N 35°20' E 119°33'1 0.3
2015-May-20 23:10N 35°21' E 119°32'0 0.0
2015-May-20 22:16N 35°21' E 119°32'0 0.0
2015-May-20 21:28N 35°21' E 119°32'0 0.0
2015-May-20 20:10N 35°21' E 119°32'0 0.0
2015-May-20 19:16N 35°21' E 119°32'0 0.0
2015-May-20 18:16N 35°21' E 119°32'0 0.0
2015-May-20 17:28N 35°21' E 119°32'0 0.0
2015-May-20 15:22N 35°21' E 119°32'0 0.0
2015-May-20 14:29N 35°21' E 119°32'0 0.0
2015-May-20 13:23N 35°21' E 119°32'0 0.0
2015-May-20 11:29N 35°21' E 119°32'0 0.0
2015-May-20 09:23N 35°21' E 119°32'0 0.0
2015-May-20 08:05N 35°21' E 119°32'0 0.0
2015-May-20 07:23N 35°21' E 119°32'0 0.0
2015-May-20 06:29N 35°21' E 119°32'0 0.0
2015-May-20 05:29N 35°21' E 119°32'0 0.0
2015-May-20 04:29N 35°21' E 119°32'0 0.0
2015-May-20 02:23N 35°21' E 119°32'0 0.0
2015-May-19 13:22N 35°21' E 119°32'0 0.0
2015-May-19 12:22N 35°21' E 119°32'0 0.0
2015-May-19 11:28N 35°21' E 119°32'0 0.0
2015-May-19 10:28N 35°21' E 119°32'0 0.0
2015-May-19 09:10N 35°21' E 119°32'0 0.0
2015-May-19 08:16N 35°21' E 119°32'0 0.0
2015-May-19 07:16N 35°21' E 119°32'0 0.0
2015-May-19 05:28N 35°21' E 119°32'0 0.0
2015-May-19 04:16N 35°21' E 119°32'0 0.0
2015-May-19 03:16N 35°21' E 119°32'0 0.0
2015-May-19 02:28N 35°21' E 119°32'0 0.0
2015-May-19 01:22N 35°21' E 119°32'0 0.0
2015-May-19 00:16N 35°21' E 119°32'0 0.0
2015-May-18 23:16N 35°21' E 119°32'0 0.0
2015-May-18 22:22N 35°21' E 119°32'0 0.0
2015-May-18 21:22N 35°21' E 119°32'0 0.1
2015-May-18 20:28N 35°21' E 119°32'1 0.5
2015-May-18 19:28N 35°21' E 119°33'0 0.0
2015-May-18 18:28N 35°21' E 119°33'0 0.0
2015-May-18 17:22N 35°21' E 119°33'0 0.0
2015-May-18 16:28N 35°21' E 119°33'0 0.0
2015-May-18 15:04N 35°21' E 119°33'0 0.1
2015-May-18 14:16N 35°21' E 119°33'0 0.0
2015-May-18 13:28N 35°21' E 119°33'0 0.0
2015-May-18 12:28N 35°21' E 119°33'0 0.1
2015-May-18 11:28N 35°21' E 119°33'0 0.0
2015-May-18 10:28N 35°21' E 119°33'0 0.0
2015-May-18 09:28N 35°21' E 119°33'0 0.0
2015-May-18 08:28N 35°21' E 119°33'0 0.0
2015-May-18 07:22N 35°21' E 119°33'0 0.0
2015-May-18 06:28N 35°21' E 119°33'0 0.0
2015-May-18 05:22N 35°21' E 119°33'0 0.0
2015-May-18 04:33N 35°21' E 119°33'0 0.0
2015-May-18 03:33N 35°21' E 119°33'0 0.0
2015-May-18 02:33N 35°21' E 119°33'0 0.0
2015-May-18 01:33N 35°21' E 119°33'0 0.0
2015-May-18 00:33N 35°21' E 119°33'0 0.0
2015-May-17 23:33N 35°21' E 119°33'0 0.0
2015-May-17 22:33N 35°21' E 119°33'2 2.5
2015-May-17 21:33N 35°20' E 119°35'6 6.4
2015-May-17 20:33N 35°17' E 119°42'5 4.7
2015-May-17 19:33N 35°16' E 119°48'1 0.5
2015-May-17 18:24N 35°16' E 119°48'0 0.2
2015-May-17 17:30N 35°16' E 119°48'0 0.2
2015-May-17 16:30N 35°16' E 119°48'0 0.1
2015-May-17 15:18N 35°16' E 119°49'0 0.1
2015-May-17 14:18N 35°16' E 119°49'0 0.0
2015-May-17 13:30N 35°16' E 119°49'0 0.0
2015-May-17 12:24N 35°16' E 119°49'0 0.1
2015-May-17 11:30N 35°16' E 119°49'0 0.1
2015-May-17 09:30N 35°16' E 119°48'0 0.0
2015-May-17 08:30N 35°16' E 119°48'0 0.0
2015-May-17 07:30N 35°16' E 119°48'0 0.0
2015-May-17 06:24N 35°16' E 119°48'0 0.1
2015-May-17 05:30N 35°16' E 119°48'0 0.2
2015-May-17 04:30N 35°16' E 119°48'0 0.1
2015-May-17 03:18N 35°16' E 119°49'0 0.1
2015-May-17 02:24N 35°16' E 119°49'0 0.0
2015-May-17 01:24N 35°16' E 119°49'0 0.0
2015-May-17 00:12N 35°16' E 119°49'0 0.0
2015-May-16 23:30N 35°16' E 119°49'0 0.3
2015-May-16 22:30N 35°16' E 119°48'0 0.0
2015-May-16 21:30N 35°16' E 119°48'0 0.0
2015-May-16 20:24N 35°16' E 119°48'0 0.1
2015-May-16 19:30N 35°16' E 119°48'0 0.1
2015-May-16 18:30N 35°16' E 119°48'0 0.1
2015-May-16 17:30N 35°16' E 119°48'0 0.2
2015-May-16 16:30N 35°16' E 119°48'0 0.1
2015-May-16 15:30N 35°16' E 119°49'0 0.0
2015-May-16 14:24N 35°16' E 119°49'0 0.0
2015-May-16 13:18N 35°16' E 119°49'0 0.0
2015-May-16 12:24N 35°16' E 119°49'0 0.0
2015-May-16 11:30N 35°16' E 119°49'0 0.2
2015-May-16 10:24N 35°16' E 119°48'0 0.1
2015-May-16 09:24N 35°16' E 119°48'0 0.0
2015-May-16 08:24N 35°16' E 119°48'0 0.0
2015-May-16 07:18N 35°16' E 119°48'0 0.1
2015-May-16 06:30N 35°16' E 119°48'0 0.0
2015-May-16 05:18N 35°16' E 119°48'0 0.2
2015-May-16 04:30N 35°16' E 119°48'0 0.2
2015-May-16 03:24N 35°16' E 119°48'0 0.1
2015-May-16 02:12N 35°16' E 119°49'0 0.0
2015-May-16 01:12N 35°16' E 119°49'0 0.1
2015-May-15 23:31N 35°16' E 119°48'3 3.0
2015-May-15 22:32N 35°16' E 119°52'7 7.1
2015-May-15 21:32N 35°18' E 120°00'8 7.4
2015-May-15 20:31N 35°15' E 120°09'  
Track history (hours):
 
Tides and Currents Weather Stations Pressure Air Temp Water Temp Dewpoint Dewpoint Depression Visibility Wind Speed Wind Dir Waves Ship Positions

Great Hebei

Last reported at 2015-May-25 04:21 UTC. Time now 2015-May-25 09:26 UTC.
Position N 22°05' E 119°50'.

Length 295 m; draft 9.6 m.

Type: Cargo ship. MMSI: 477617100.

Date/timePositionNaut miles runAvg speedWind from/ knotsBaromVisibWave heightAir tempDewpointWater temp
2015-May-25 04:21N 22°05' E 119°50'1010.2
2015-May-25 03:20N 22°16' E 119°50'810.3
2015-May-25 02:33N 22°24' E 119°50'1110.6
2015-May-25 01:33N 22°34' E 119°50'1010.5
2015-May-25 00:33N 22°45' E 119°51'1010.2
2015-May-24 23:33N 22°55' E 119°50'  
2015-May-22 15:22N 31°12' E 123°18'2010.6
2015-May-22 13:31N 31°32' E 123°15'1111.6
2015-May-22 12:33N 31°43' E 123°15'1211.7
2015-May-22 11:33N 31°55' E 123°14'1611.1
2015-May-22 10:07N 32°10' E 123°14'610.8
2015-May-22 09:32N 32°17' E 123°13'1010.3
2015-May-22 08:33N 32°26' E 123°09'9 7.4
2015-May-22 07:18N 32°35' E 123°07'28 8.7
2015-May-22 04:04N 33°03' E 123°00'610.1
2015-May-22 03:27N 33°09' E 123°00'1310.0
2015-May-22 02:08N 33°22' E 122°55'611.1
2015-May-22 01:33N 33°28' E 122°54'7 6.6
2015-May-22 00:25N 33°34' E 122°48'61 8.7
2015-May-21 17:23N 34°31' E 122°23'127 9.9
2015-May-21 04:33N 35°12' E 119°57'1110.7
2015-May-21 03:33N 35°16' E 119°44'1010.5
2015-May-21 02:33N 35°20' E 119°33'1 0.3
2015-May-20 23:10N 35°21' E 119°32'0 0.0
2015-May-20 22:16N 35°21' E 119°32'0 0.0
2015-May-20 21:28N 35°21' E 119°32'0 0.0
2015-May-20 20:10N 35°21' E 119°32'0 0.0
2015-May-20 19:16N 35°21' E 119°32'0 0.0
2015-May-20 18:16N 35°21' E 119°32'0 0.0
2015-May-20 17:28N 35°21' E 119°32'0 0.0
2015-May-20 15:22N 35°21' E 119°32'0 0.0
2015-May-20 14:29N 35°21' E 119°32'0 0.0
2015-May-20 13:23N 35°21' E 119°32'0 0.0
2015-May-20 11:29N 35°21' E 119°32'0 0.0
2015-May-20 09:23N 35°21' E 119°32'0 0.0
2015-May-20 08:05N 35°21' E 119°32'0 0.0
2015-May-20 07:23N 35°21' E 119°32'0 0.0
2015-May-20 06:29N 35°21' E 119°32'0 0.0
2015-May-20 05:29N 35°21' E 119°32'0 0.0
2015-May-20 04:29N 35°21' E 119°32'0 0.0
2015-May-20 02:23N 35°21' E 119°32'0 0.0
2015-May-19 13:22N 35°21' E 119°32'0 0.0
2015-May-19 12:22N 35°21' E 119°32'0 0.0
2015-May-19 11:28N 35°21' E 119°32'0 0.0
2015-May-19 10:28N 35°21' E 119°32'0 0.0
2015-May-19 09:10N 35°21' E 119°32'0 0.0
2015-May-19 08:16N 35°21' E 119°32'0 0.0
2015-May-19 07:16N 35°21' E 119°32'0 0.0
2015-May-19 05:28N 35°21' E 119°32'0 0.0
2015-May-19 04:16N 35°21' E 119°32'0 0.0
2015-May-19 03:16N 35°21' E 119°32'0 0.0
2015-May-19 02:28N 35°21' E 119°32'0 0.0
2015-May-19 01:22N 35°21' E 119°32'0 0.0
2015-May-19 00:16N 35°21' E 119°32'0 0.0
2015-May-18 23:16N 35°21' E 119°32'0 0.0
2015-May-18 22:22N 35°21' E 119°32'0 0.0
2015-May-18 21:22N 35°21' E 119°32'0 0.1
2015-May-18 20:28N 35°21' E 119°32'1 0.5
2015-May-18 19:28N 35°21' E 119°33'0 0.0
2015-May-18 18:28N 35°21' E 119°33'0 0.0
2015-May-18 17:22N 35°21' E 119°33'0 0.0
2015-May-18 16:28N 35°21' E 119°33'0 0.0
2015-May-18 15:04N 35°21' E 119°33'0 0.1
2015-May-18 14:16N 35°21' E 119°33'0 0.0
2015-May-18 13:28N 35°21' E 119°33'0 0.0
2015-May-18 12:28N 35°21' E 119°33'0 0.1
2015-May-18 11:28N 35°21' E 119°33'0 0.0
2015-May-18 10:28N 35°21' E 119°33'0 0.0
2015-May-18 09:28N 35°21' E 119°33'0 0.0
2015-May-18 08:28N 35°21' E 119°33'0 0.0
2015-May-18 07:22N 35°21' E 119°33'0 0.0
2015-May-18 06:28N 35°21' E 119°33'0 0.0
2015-May-18 05:22N 35°21' E 119°33'0 0.0
2015-May-18 04:33N 35°21' E 119°33'0 0.0
2015-May-18 03:33N 35°21' E 119°33'0 0.0
2015-May-18 02:33N 35°21' E 119°33'0 0.0
2015-May-18 01:33N 35°21' E 119°33'0 0.0
2015-May-18 00:33N 35°21' E 119°33'0 0.0
2015-May-17 23:33N 35°21' E 119°33'0 0.0
2015-May-17 22:33N 35°21' E 119°33'2 2.5
2015-May-17 21:33N 35°20' E 119°35'6 6.4
2015-May-17 20:33N 35°17' E 119°42'5 4.7
2015-May-17 19:33N 35°16' E 119°48'1 0.5
2015-May-17 18:24N 35°16' E 119°48'0 0.2
2015-May-17 17:30N 35°16' E 119°48'0 0.2
2015-May-17 16:30N 35°16' E 119°48'0 0.1
2015-May-17 15:18N 35°16' E 119°49'0 0.1
2015-May-17 14:18N 35°16' E 119°49'0 0.0
2015-May-17 13:30N 35°16' E 119°49'0 0.0
2015-May-17 12:24N 35°16' E 119°49'0 0.1
2015-May-17 11:30N 35°16' E 119°49'0 0.1
2015-May-17 09:30N 35°16' E 119°48'0 0.0
2015-May-17 08:30N 35°16' E 119°48'0 0.0
2015-May-17 07:30N 35°16' E 119°48'0 0.0
2015-May-17 06:24N 35°16' E 119°48'0 0.1
2015-May-17 05:30N 35°16' E 119°48'0 0.2
2015-May-17 04:30N 35°16' E 119°48'0 0.1
2015-May-17 03:18N 35°16' E 119°49'0 0.1
2015-May-17 02:24N 35°16' E 119°49'0 0.0
2015-May-17 01:24N 35°16' E 119°49'0 0.0
2015-May-17 00:12N 35°16' E 119°49'0 0.0
2015-May-16 23:30N 35°16' E 119°49'0 0.3
2015-May-16 22:30N 35°16' E 119°48'0 0.0
2015-May-16 21:30N 35°16' E 119°48'0 0.0
2015-May-16 20:24N 35°16' E 119°48'0 0.1
2015-May-16 19:30N 35°16' E 119°48'0 0.1
2015-May-16 18:30N 35°16' E 119°48'0 0.1
2015-May-16 17:30N 35°16' E 119°48'0 0.2
2015-May-16 16:30N 35°16' E 119°48'0 0.1
2015-May-16 15:30N 35°16' E 119°49'0 0.0
2015-May-16 14:24N 35°16' E 119°49'0 0.0
2015-May-16 13:18N 35°16' E 119°49'0 0.0
2015-May-16 12:24N 35°16' E 119°49'0 0.0
2015-May-16 11:30N 35°16' E 119°49'0 0.2
2015-May-16 10:24N 35°16' E 119°48'0 0.1
2015-May-16 09:24N 35°16' E 119°48'0 0.0
2015-May-16 08:24N 35°16' E 119°48'0 0.0
2015-May-16 07:18N 35°16' E 119°48'0 0.1
2015-May-16 06:30N 35°16' E 119°48'0 0.0
2015-May-16 05:18N 35°16' E 119°48'0 0.2
2015-May-16 04:30N 35°16' E 119°48'0 0.2
2015-May-16 03:24N 35°16' E 119°48'0 0.1
2015-May-16 02:12N 35°16' E 119°49'0 0.0
2015-May-16 01:12N 35°16' E 119°49'0 0.1
2015-May-15 23:31N 35°16' E 119°48'3 3.0
2015-May-15 22:32N 35°16' E 119°52'7 7.1
2015-May-15 21:32N 35°18' E 120°00'8 7.4
2015-May-15 20:31N 35°15' E 120°09'  

Dump ship's entire track history